Time;durP1;ratioP1;P1;durP2;ratioP2;P2;SDS_P1;SDS_P2;PMS_P1;PMS_P2;Temp;Humidity;BMP_temperature;BMP_pressure;BME280_temperature;BME280_humidity;BME280_pressure;Samples;Min_cycle;Max_cycle;Signal;HPM_P1;HPM_P2
2021/09/09 00:00:53;;;;;;;;;;;;;;;-142.75;89.69;76208.09;4997758;28;19910;-75
2021/09/09 00:03:18;;;;;;;;;;;;;;;-142.75;89.93;76219.91;4990958;28;20008;-74
2021/09/09 00:05:44;;;;;;;;;;;;;;;-142.75;90.02;76221.88;5057648;28;20001;-74
2021/09/09 00:08:09;;;;;;;;;;;;;;;-142.75;90.18;76227.78;4990616;28;19921;-74
2021/09/09 00:10:35;;;;;;;;;;;;;;;-142.75;90.28;76229.75;4990013;28;19945;-75
2021/09/09 00:13:00;;;;;;;;;;;;;;;-142.75;90.55;76217.94;4990767;28;19937;-74
2021/09/09 00:15:25;;;;;;;;;;;;;;;-142.75;90.46;76212.03;4992379;28;19996;-76
2021/09/09 00:17:50;;;;;;;;;;;;;;;-142.75;90.25;76219.91;4994501;28;19967;-75
2021/09/09 00:20:15;;;;;;;;;;;;;;;-142.75;90.02;76239.59;4995663;28;19924;-76
2021/09/09 00:22:41;;;;;;;;;;;;;;;-142.75;92.13;76243.53;5079281;28;19913;-76
2021/09/09 00:25:07;;;;;;;;;;;;;;;-142.75;92.98;76247.47;5011238;28;19921;-76
2021/09/09 00:27:32;;;;;;;;;;;;;;;-142.75;93.55;76243.53;5012538;28;20325;-76
2021/09/09 00:29:57;;;;;;;;;;;;;;;-142.75;92.76;76231.72;5003373;28;19921;-75
2021/09/09 00:32:23;;;;;;;;;;;;;;;-142.75;92.13;76225.81;4996326;28;19918;-76
2021/09/09 00:34:48;;;;;;;;;;;;;;;-142.75;92.26;76219.91;5076756;28;19967;-75
2021/09/09 00:37:13;;;;;;;;;;;;;;;-142.75;92.07;76208.09;5007334;28;19910;-75
2021/09/09 00:39:38;;;;;;;;;;;;;;;-142.75;92.51;76210.06;5058214;28;19918;-75
2021/09/09 00:42:03;;;;;;;;;;;;;;;-142.75;91.84;76204.16;5057237;28;19920;-74
2021/09/09 00:44:29;;;;;;;;;;;;;;;-142.75;91.79;76210.06;4990517;28;19913;-75
2021/09/09 00:47:03;;;;;;;;;;;;;;;-142.75;90.75;76208.09;4991519;28;20363;-75
2021/09/09 00:49:29;;;;;;;;;;;;;;;-142.75;91.17;76208.09;5008760;28;19956;-74
2021/09/09 00:51:54;;;;;;;;;;;;;;;-142.75;91.04;76204.16;5009438;28;19961;-74
2021/09/09 00:54:19;;;;;;;;;;;;;;;-142.75;89.96;76212.03;5076738;28;19917;-74
2021/09/09 00:56:44;;;;;;;;;;;;;;;-142.75;90.77;76215.97;5009131;28;20385;-74
2021/09/09 00:59:10;;;;;;;;;;;;;;;-142.75;91.09;76221.88;5076815;28;21017;-74
2021/09/09 01:01:35;;;;;;;;;;;;;;;-142.75;91.19;76229.75;5008827;28;20417;-74
2021/09/09 01:04:00;;;;;;;;;;;;;;;-142.75;91.13;76233.69;5009183;28;20054;-75
2021/09/09 01:06:25;;;;;;;;;;;;;;;-142.75;91.07;76239.59;5009017;28;19913;-74
2021/09/09 01:08:51;;;;;;;;;;;;;;;-142.75;91.37;76231.72;5009218;28;19913;-75
2021/09/09 01:11:16;;;;;;;;;;;;;;;-142.75;91.42;76235.66;5076345;28;20021;-74
2021/09/09 01:13:51;;;;;;;;;;;;;;;-142.75;91.54;76241.56;5057908;28;19914;-73
2021/09/09 01:16:16;;;;;;;;;;;;;;;-142.75;91.18;76237.63;5056262;28;19957;-75
2021/09/09 01:18:41;;;;;;;;;;;;;;;-142.75;90.89;76241.56;5056340;28;19979;-75
2021/09/09 01:21:06;;;;;;;;;;;;;;;-142.75;90.80;76239.59;5056241;28;19945;-75
2021/09/09 01:23:32;;;;;;;;;;;;;;;-142.75;90.77;76237.63;4996617;28;19913;-74
2021/09/09 01:25:58;;;;;;;;;;;;;;;-142.75;90.79;76239.59;4993805;28;20004;-74
2021/09/09 01:28:23;;;;;;;;;;;;;;;-142.75;90.32;76239.59;4990171;28;20299;-76
2021/09/09 01:30:48;;;;;;;;;;;;;;;-142.75;90.79;76245.50;5057511;28;19917;-75
2021/09/09 01:33:13;;;;;;;;;;;;;;;-142.75;90.49;76253.38;4990681;28;20457;-75
2021/09/09 01:35:38;;;;;;;;;;;;;;;-142.75;91.19;76267.16;4990903;28;19944;-75
2021/09/09 01:38:04;;;;;;;;;;;;;;;-142.75;91.97;76273.06;4991704;28;19913;-76
2021/09/09 01:40:30;;;;;;;;;;;;;;;-142.75;92.46;76275.03;4991374;28;20295;-75
2021/09/09 01:42:56;;;;;;;;;;;;;;;-142.75;92.68;76282.91;5058059;28;20376;-76
2021/09/09 01:45:21;;;;;;;;;;;;;;;-142.75;92.47;76273.06;5057997;28;19928;-75
2021/09/09 01:47:46;;;;;;;;;;;;;;;-142.75;91.99;76273.06;4991756;28;19914;-75
2021/09/09 01:50:11;;;;;;;;;;;;;;;-142.75;91.74;76277.00;4991100;28;20402;-76
2021/09/09 01:52:37;;;;;;;;;;;;;;;-142.75;91.81;76275.03;4990858;28;20016;-75
2021/09/09 01:55:02;;;;;;;;;;;;;;;-142.75;91.50;76288.81;5058276;28;19996;-75
2021/09/09 01:57:27;;;;;;;;;;;;;;;-142.75;92.26;76294.72;5058616;28;20476;-75
2021/09/09 01:59:56;;;;;;;;;;;;;;;-142.75;92.83;76294.72;4991054;28;19913;-74
2021/09/09 02:02:21;;;;;;;;;;;;;;;-142.75;92.89;76288.81;5061262;28;19913;-74
2021/09/09 02:04:46;;;;;;;;;;;;;;;-142.75;92.53;76290.78;4993798;28;19943;-74
2021/09/09 02:07:11;;;;;;;;;;;;;;;-142.75;93.01;76294.72;4992392;28;19937;-74
2021/09/09 02:09:37;;;;;;;;;;;;;;;-142.75;93.76;76290.78;4992344;28;19914;-75
2021/09/09 02:12:02;;;;;;;;;;;;;;;-142.75;93.65;76284.88;5060045;28;20318;-75
2021/09/09 02:14:27;;;;;;;;;;;;;;;-142.75;93.69;76275.03;4991902;28;20394;-74
2021/09/09 02:16:52;;;;;;;;;;;;;;;-142.75;94.44;76286.84;4992166;28;19913;-75
2021/09/09 02:19:17;;;;;;;;;;;;;;;-142.75;94.35;76278.97;4991988;28;19920;-75
2021/09/09 02:21:42;;;;;;;;;;;;;;;-142.75;93.34;76275.03;4991811;28;20045;-74
2021/09/09 02:24:08;;;;;;;;;;;;;;;-142.75;93.38;76275.03;5059667;28;19925;-75
2021/09/09 02:26:33;;;;;;;;;;;;;;;-142.75;93.49;76275.03;5059453;28;19921;-75
2021/09/09 02:28:58;;;;;;;;;;;;;;;-142.75;94.27;76278.97;4991906;28;19918;-74
2021/09/09 02:31:23;;;;;;;;;;;;;;;-142.75;94.33;76286.84;4992084;28;19922;-76
2021/09/09 02:33:48;;;;;;;;;;;;;;;-142.75;94.14;76288.81;4992633;28;19913;-74
2021/09/09 02:36:14;;;;;;;;;;;;;;;-142.75;93.41;76286.84;4992802;28;19914;-75
2021/09/09 02:38:39;;;;;;;;;;;;;;;-142.75;93.50;76290.78;4991900;28;19954;-74
2021/09/09 02:41:04;;;;;;;;;;;;;;;-142.75;93.12;76282.91;5059758;28;19975;-74
2021/09/09 02:43:29;;;;;;;;;;;;;;;-142.75;92.13;76284.88;5060876;28;19949;-74
2021/09/09 02:45:54;;;;;;;;;;;;;;;-142.75;91.94;76290.78;4992281;28;19960;-74
2021/09/09 02:48:21;;;;;;;;;;;;;;;-142.75;91.82;76292.75;4991704;28;19922;-74
2021/09/09 02:50:46;;;;;;;;;;;;;;;-142.75;91.85;76290.78;5058863;28;20005;-74
2021/09/09 02:53:11;;;;;;;;;;;;;;;-142.75;91.54;76300.63;5059087;28;20371;-74
2021/09/09 02:55:36;;;;;;;;;;;;;;;-142.75;91.61;76302.59;5000451;28;19914;-75
2021/09/09 02:58:02;;;;;;;;;;;;;;;-142.75;91.99;76302.59;5010937;28;19921;-74
2021/09/09 03:00:27;;;;;;;;;;;;;;;-142.75;92.42;76298.66;5007799;28;20000;-74
2021/09/09 03:02:52;;;;;;;;;;;;;;;-142.75;92.32;76302.59;4991534;28;19920;-75
2021/09/09 03:05:17;;;;;;;;;;;;;;;-142.75;92.38;76300.63;4991162;28;19914;-74
2021/09/09 03:07:43;;;;;;;;;;;;;;;-142.75;92.29;76302.59;4991430;28;19953;-74
2021/09/09 03:10:08;;;;;;;;;;;;;;;-142.75;92.44;76304.56;4992350;28;20636;-75
2021/09/09 03:12:34;;;;;;;;;;;;;;;-142.75;92.58;76302.59;5057290;28;19921;-74
2021/09/09 03:14:59;;;;;;;;;;;;;;;-142.75;92.65;76314.41;4991059;28;20009;-74
2021/09/09 03:17:24;;;;;;;;;;;;;;;-142.75;92.59;76310.47;4991228;28;19920;-74
2021/09/09 03:19:49;;;;;;;;;;;;;;;-142.75;92.64;76302.59;4990817;28;19922;-73
2021/09/09 03:22:14;;;;;;;;;;;;;;;-142.75;92.92;76306.53;4991010;28;19957;-74
2021/09/09 03:24:40;;;;;;;;;;;;;;;-142.75;92.83;76310.47;4990930;28;20024;-74
2021/09/09 03:27:05;;;;;;;;;;;;;;;-142.75;93.42;76302.59;4990919;28;19914;-75
2021/09/09 03:29:30;;;;;;;;;;;;;;;-142.75;93.21;76298.66;4991855;28;19920;-74
2021/09/09 03:31:55;;;;;;;;;;;;;;;-142.75;93.67;76302.59;4991369;28;19923;-75
2021/09/09 03:34:20;;;;;;;;;;;;;;;-142.75;93.57;76310.47;4991234;28;20387;-76
2021/09/09 03:36:46;;;;;;;;;;;;;;;-142.75;93.13;76304.56;5059579;28;19913;-76
2021/09/09 03:39:11;;;;;;;;;;;;;;;-142.75;93.55;76320.31;4991827;28;20290;-75
2021/09/09 03:41:36;;;;;;;;;;;;;;;-142.75;94.15;76320.31;4990894;28;19920;-74
2021/09/09 03:44:01;;;;;;;;;;;;;;;-142.75;94.63;76330.16;5058353;28;19922;-76
2021/09/09 03:46:27;;;;;;;;;;;;;;;-142.75;94.89;76328.19;5002622;23;20312;-78
2021/09/09 03:48:52;;;;;;;;;;;;;;;-142.75;94.68;76328.19;4971089;28;19918;-77
2021/09/09 03:51:17;;;;;;;;;;;;;;;-142.75;93.34;76306.53;4955139;28;19914;-77
2021/09/09 03:53:42;;;;;;;;;;;;;;;-142.75;93.07;76316.38;4957103;28;19914;-76
2021/09/09 03:56:07;;;;;;;;;;;;;;;-142.75;92.56;76314.41;4989481;28;19922;-78
2021/09/09 03:58:32;;;;;;;;;;;;;;;-142.75;92.66;76306.53;4992304;28;19939;-77
2021/09/09 04:00:58;;;;;;;;;;;;;;;-142.75;92.23;76302.59;4975065;28;19967;-77
2021/09/09 04:03:23;;;;;;;;;;;;;;;-142.75;92.53;76302.59;4975217;28;19917;-77
2021/09/09 04:05:48;;;;;;;;;;;;;;;-142.75;93.18;76310.47;4992019;28;19959;-77
2021/09/09 04:08:13;;;;;;;;;;;;;;;-142.75;93.67;76306.53;4992139;28;19914;-78
2021/09/09 04:10:39;;;;;;;;;;;;;;;-142.75;93.30;76308.50;4974306;28;20012;-76
2021/09/09 04:13:04;;;;;;;;;;;;;;;-142.75;93.24;76314.41;4975169;28;19936;-77
2021/09/09 04:15:29;;;;;;;;;;;;;;;-142.75;93.29;76312.44;4991937;28;19913;-77
2021/09/09 04:17:54;;;;;;;;;;;;;;;-142.75;93.16;76314.41;4974369;28;20013;-78
2021/09/09 04:20:19;;;;;;;;;;;;;;;-142.75;94.03;76310.47;4990954;28;19996;-77
2021/09/09 04:22:45;;;;;;;;;;;;;;;-142.75;93.46;76308.50;4974202;28;19921;-76
2021/09/09 04:25:10;;;;;;;;;;;;;;;-142.75;93.01;76306.53;4991028;28;19925;-76
2021/09/09 04:27:35;;;;;;;;;;;;;;;-142.75;92.86;76300.63;4973810;28;19914;-77
2021/09/09 04:30:01;;;;;;;;;;;;;;;-142.75;92.57;76300.63;4991003;28;19913;-77
2021/09/09 04:32:26;;;;;;;;;;;;;;;-142.75;93.03;76302.59;4973709;28;19917;-76
2021/09/09 04:34:51;;;;;;;;;;;;;;;-142.75;92.45;76302.59;4991385;28;19914;-78
2021/09/09 04:37:17;;;;;;;;;;;;;;;-142.75;92.45;76296.69;4973630;28;19968;-76
2021/09/09 04:39:42;;;;;;;;;;;;;;;-142.75;92.50;76290.78;4990676;28;20009;-77
2021/09/09 04:42:07;;;;;;;;;;;;;;;-142.75;91.95;76306.53;4973058;28;19967;-77
2021/09/09 04:44:33;;;;;;;;;;;;;;;-142.75;91.82;76308.50;4991178;28;19990;-77
2021/09/09 04:46:58;;;;;;;;;;;;;;;-142.75;92.03;76316.38;4973340;28;19937;-76
2021/09/09 04:49:23;;;;;;;;;;;;;;;-142.75;92.98;76318.34;4990690;28;19918;-77
2021/09/09 04:51:48;;;;;;;;;;;;;;;-142.75;93.45;76326.22;4990390;28;20371;-77
2021/09/09 04:54:13;;;;;;;;;;;;;;;-142.75;95.01;76326.22;4973483;28;20288;-77
2021/09/09 04:56:39;;;;;;;;;;;;;;;-142.75;95.51;76314.41;4990903;28;19914;-77
2021/09/09 04:59:04;;;;;;;;;;;;;;;-142.75;94.88;76310.47;4990871;28;19964;-77
2021/09/09 05:01:29;;;;;;;;;;;;;;;-142.75;95.36;76310.47;4990274;28;19949;-78
2021/09/09 05:03:54;;;;;;;;;;;;;;;-142.75;95.05;76318.34;4973298;28;19965;-76
2021/09/09 05:06:19;;;;;;;;;;;;;;;-142.75;94.35;76310.47;4972841;28;20380;-78
2021/09/09 05:08:44;;;;;;;;;;;;;;;-142.75;93.76;76302.59;4990584;28;19996;-77
2021/09/09 05:11:11;;;;;;;;;;;;;;;-142.75;93.95;76298.66;4972157;28;19920;-77
2021/09/09 05:13:37;;;;;;;;;;;;;;;-142.75;94.33;76300.63;4972933;28;19960;-77
2021/09/09 05:16:02;;;;;;;;;;;;;;;-142.75;94.08;76294.72;4990342;28;19922;-77
2021/09/09 05:18:27;;;;;;;;;;;;;;;-142.75;92.95;76306.53;4989952;28;19914;-77
2021/09/09 05:20:52;;;;;;;;;;;;;;;-142.75;92.50;76318.34;4990212;28;19913;-77
2021/09/09 05:23:18;;;;;;;;;;;;;;;-142.75;92.39;76324.25;4972276;28;19921;-76
2021/09/09 05:25:43;;;;;;;;;;;;;;;-142.75;93.25;76322.28;4989737;28;20387;-77
2021/09/09 05:28:08;;;;;;;;;;;;;;;-142.75;95.41;76322.28;4989871;28;19949;-77
2021/09/09 05:30:33;;;;;;;;;;;;;;;-142.75;94.78;76312.44;4973379;28;19941;-78
2021/09/09 05:32:59;;;;;;;;;;;;;;;-142.75;94.13;76306.53;4989772;28;20398;-77
2021/09/09 05:35:24;;;;;;;;;;;;;;;-142.75;93.13;76288.81;4971881;28;19914;-77
2021/09/09 05:37:49;;;;;;;;;;;;;;;-142.75;92.57;76277.00;4990119;28;19914;-77
2021/09/09 05:40:14;;;;;;;;;;;;;;;-142.75;92.88;76271.09;4972628;28;19917;-77
2021/09/09 05:42:39;;;;;;;;;;;;;;;-142.75;92.30;76251.41;4974834;28;19918;-78
2021/09/09 05:45:05;;;;;;;;;;;;;;;-142.75;90.63;76239.59;4991839;28;19920;-78
2021/09/09 05:47:30;;;;;;;;;;;;;;;-142.75;89.87;76227.78;4992532;28;19914;-78
2021/09/09 05:49:55;;;;;;;;;;;;;;;-142.75;87.99;76206.13;4992272;28;19960;-77
2021/09/09 05:52:21;;;;;;;;;;;;;;;-142.75;87.80;76200.25;4990251;28;20364;-77
2021/09/09 05:54:46;;;;;;;;;;;;;;;-142.75;87.40;76180.56;4990813;28;20276;-77
2021/09/09 05:57:11;;;;;;;;;;;;;;;-142.75;87.40;76178.59;4974479;28;19996;-79
2021/09/09 05:59:36;;;;;;;;;;;;;;;-142.75;86.33;76158.91;4994823;28;19920;-78
2021/09/09 06:02:02;;;;;;;;;;;;;;;-142.75;85.16;76137.25;4991941;28;19932;-78
2021/09/09 06:04:28;;;;;;;;;;;;;;;-142.75;83.19;76113.63;4991295;28;20586;-77
2021/09/09 06:06:54;;;;;;;;;;;;;;;-142.75;81.57;76082.13;4972931;28;19935;-78
2021/09/09 06:09:19;;;;;;;;;;;;;;;-142.75;80.82;76072.31;4972658;28;20295;-77
2021/09/09 06:11:45;;;;;;;;;;;;;;;-142.75;81.92;76058.53;4973482;28;19918;-77
2021/09/09 06:14:10;;;;;;;;;;;;;;;-142.75;80.81;76074.25;4977291;28;19914;-78
2021/09/09 06:16:37;;;;;;;;;;;;;;;-142.75;80.77;76058.53;4994475;28;19959;-79
2021/09/09 06:19:02;;;;;;;;;;;;;;;-142.75;78.97;76015.22;4975091;28;19957;-79
2021/09/09 06:21:27;;;;;;;;;;;;;;;-142.75;77.65;75991.59;4992302;28;19920;-78
2021/09/09 06:23:52;;;;;;;;;;;;;;;-142.75;77.62;76027.03;4975441;28;20027;-78
2021/09/09 06:26:18;;;;;;;;;;;;;;;-142.75;77.04;75966.00;4974966;28;19914;-78
2021/09/09 06:28:43;;;;;;;;;;;;;;;-142.75;76.60;76001.44;4976088;28;19922;-77
2021/09/09 06:31:09;;;;;;;;;;;;;;;-142.75;75.08;75932.56;4992369;28;19976;-78
2021/09/09 06:33:34;;;;;;;;;;;;;;;-142.75;73.29;75914.84;4993042;28;20024;-77
2021/09/09 06:35:59;;;;;;;;;;;;;;;-142.75;74.07;75928.63;4973429;28;19913;-79
2021/09/09 06:38:24;;;;;;;;;;;;;;;-142.75;74.41;75924.69;4990521;28;19914;-80
2021/09/09 06:40:50;;;;;;;;;;;;;;;-142.75;75.45;75971.91;4972454;28;20432;-77
2021/09/09 06:43:15;;;;;;;;;;;;;;;-142.75;77.53;75932.56;4973998;28;19917;-77
2021/09/09 06:45:40;;;;;;;;;;;;;;;-142.75;76.49;75922.72;4990822;28;19979;-78
2021/09/09 06:48:05;;;;;;;;;;;;;;;-142.75;75.60;75844.00;4994492;28;19920;-79
2021/09/09 06:50:31;;;;;;;;;;;;;;;-142.75;69.90;75757.41;4976798;28;19924;-79
2021/09/09 06:52:56;;;;;;;;;;;;;;;-142.75;67.73;75751.50;4994477;28;19924;-78
2021/09/09 06:55:21;;;;;;;;;;;;;;;-142.75;65.03;75664.91;4978851;28;19922;-78
2021/09/09 06:57:46;;;;;;;;;;;;;;;-142.75;65.97;75735.75;4994134;28;19943;-79
2021/09/09 07:00:12;;;;;;;;;;;;;;;-142.75;68.19;75765.25;4995833;28;20028;-78
2021/09/09 07:02:37;;;;;;;;;;;;;;;-142.75;67.93;75733.78;4994371;28;19914;-78
2021/09/09 07:05:02;;;;;;;;;;;;;;;-142.75;67.34;75696.38;4993846;28;19928;-78
2021/09/09 07:07:27;;;;;;;;;;;;;;;-142.75;66.62;75668.84;4993682;28;19990;-78
2021/09/09 07:09:53;;;;;;;;;;;;;;;-142.75;64.78;75641.28;4994471;28;19917;-79
2021/09/09 07:12:18;;;;;;;;;;;;;;;-142.75;62.44;75592.09;4977180;28;19917;-78
2021/09/09 07:14:43;;;;;;;;;;;;;;;-142.75;62.42;75570.44;4976433;28;19920;-79
2021/09/09 07:17:08;;;;;;;;;;;;;;;-142.75;62.58;75527.13;4995232;28;19914;-79
2021/09/09 07:19:34;;;;;;;;;;;;;;;-142.75;59.04;75474.00;4976123;28;19913;-80
2021/09/09 07:21:59;;;;;;;;;;;;;;;-142.75;60.36;75475.97;4976556;28;20424;-79
2021/09/09 07:24:24;;;;;;;;;;;;;;;-142.75;60.50;75434.66;4976351;28;19952;-79
2021/09/09 07:26:49;;;;;;;;;;;;;;;-142.75;58.88;75389.38;4996629;28;20375;-78
2021/09/09 07:29:15;;;;;;;;;;;;;;;-142.75;56.73;75357.91;4995444;28;20455;-78
2021/09/09 07:31:41;;;;;;;;;;;;;;;-142.75;56.93;75338.22;4976567;28;19929;-78
2021/09/09 07:34:06;;;;;;;;;;;;;;;-142.75;53.74;75109.94;4992753;28;19976;-78
2021/09/09 07:36:31;;;;;;;;;;;;;;;-142.75;50.47;75035.19;4978731;28;19914;-78
2021/09/09 07:38:56;;;;;;;;;;;;;;;-142.75;49.53;75088.31;4996919;28;19925;-79
2021/09/09 07:41:21;;;;;;;;;;;;;;;-142.75;49.17;75013.53;4996986;28;19913;-77
2021/09/09 07:43:47;;;;;;;;;;;;;;;-142.75;51.40;75161.13;4977582;28;19913;-78
2021/09/09 07:46:12;;;;;;;;;;;;;;;-142.75;50.32;74954.50;4997327;28;19941;-78
2021/09/09 07:48:37;;;;;;;;;;;;;;;-142.75;47.93;74740.03;4999194;28;20027;-77
2021/09/09 07:51:02;;;;;;;;;;;;;;;-142.75;43.12;74681.00;4996165;28;19917;-79
2021/09/09 07:53:27;;;;;;;;;;;;;;;-142.75;43.97;74684.94;4994540;28;19965;-79
2021/09/09 07:55:52;;;;;;;;;;;;;;;-142.75;41.89;74586.56;4997401;28;19918;-78
2021/09/09 07:58:18;;;;;;;;;;;;;;;-142.75;41.17;74521.63;5000845;28;19914;-78
2021/09/09 08:00:43;;;;;;;;;;;;;;;-142.75;40.51;74553.13;4997667;28;19922;-78
2021/09/09 08:03:08;;;;;;;;;;;;;;;-142.75;40.32;74482.28;4996141;28;20282;-79
2021/09/09 08:05:33;;;;;;;;;;;;;;;-142.75;39.10;74488.19;4979828;28;20382;-79
2021/09/09 08:07:59;;;;;;;;;;;;;;;-142.75;38.93;74527.53;4996886;28;19936;-77
2021/09/09 08:10:24;;;;;;;;;;;;;;;-142.75;40.81;74545.25;4983417;28;19914;-78
2021/09/09 08:12:49;;;;;;;;;;;;;;;-142.75;38.35;74391.78;4985605;28;19917;-79
2021/09/09 08:15:15;;;;;;;;;;;;;;;-142.75;38.86;74604.28;5001076;28;19913;-77
2021/09/09 08:17:40;;;;;;;;;;;;;;;-142.75;40.44;74472.44;4987973;28;19929;-77
2021/09/09 08:20:06;;;;;;;;;;;;;;;-142.75;38.92;74448.84;5003397;28;19925;-79
2021/09/09 08:22:31;;;;;;;;;;;;;;;-142.75;37.25;74346.53;4989622;28;19956;-78
2021/09/09 08:24:56;;;;;;;;;;;;;;;-142.75;38.42;74362.28;5004233;28;19914;-77
2021/09/09 08:27:23;;;;;;;;;;;;;;;-142.75;37.98;74358.34;4985467;28;19960;-77
2021/09/09 08:29:48;;;;;;;;;;;;;;;-142.75;37.98;74378.00;5004146;28;19924;-77
2021/09/09 08:32:13;;;;;;;;;;;;;;;-142.75;37.99;74338.66;4987623;28;20314;-77
2021/09/09 08:34:38;;;;;;;;;;;;;;;-142.75;37.77;74393.75;5003001;28;20574;-77
2021/09/09 08:37:03;;;;;;;;;;;;;;;-142.75;37.60;74433.09;5002545;28;19917;-77
2021/09/09 08:39:29;;;;;;;;;;;;;;;-142.75;38.85;74401.63;5004667;28;19956;-78
2021/09/09 08:41:54;;;;;;;;;;;;;;;-142.75;37.20;74344.56;4981355;28;19945;-77
2021/09/09 08:44:19;;;;;;;;;;;;;;;-142.75;38.97;74409.50;5005000;28;19921;-77
2021/09/09 08:46:45;;;;;;;;;;;;;;;-142.75;37.77;74397.69;5002665;28;19922;-77
2021/09/09 08:49:10;;;;;;;;;;;;;;;-142.75;39.87;74456.72;5005000;28;19916;-77
2021/09/09 08:51:35;;;;;;;;;;;;;;;-142.75;38.48;74320.97;4985670;28;19925;-77
2021/09/09 08:54:01;;;;;;;;;;;;;;;-142.75;37.51;74324.88;4984467;28;19914;-77
2021/09/09 08:56:26;;;;;;;;;;;;;;;-142.75;36.50;74193.09;5001768;28;19913;-77
2021/09/09 08:58:51;;;;;;;;;;;;;;;-142.75;37.60;74474.41;4982451;28;19939;-77
2021/09/09 09:01:18;;;;;;;;;;;;;;;-142.75;38.99;74417.34;5001947;28;19914;-78
2021/09/09 09:04:03;;;;;;;;;;;;;;;-142.75;37.48;74263.91;5001225;28;19917;-77
2021/09/09 09:06:30;;;;;;;;;;;;;;;-142.75;35.36;74082.91;4984755;28;19929;-78
2021/09/09 09:08:56;;;;;;;;;;;;;;;-142.75;34.66;74067.19;5002938;28;19914;-78
2021/09/09 09:11:26;;;;;;;;;;;;;;;-142.75;35.14;74283.56;4999841;28;19921;-79
2021/09/09 09:13:51;;;;;;;;;;;;;;;-142.75;36.46;74287.50;4997205;28;19924;-78
2021/09/09 09:16:18;;;;;;;;;;;;;;;-142.75;35.79;74047.50;5004800;28;19914;-78
2021/09/09 09:18:44;;;;;;;;;;;;;;;-142.75;35.10;74016.03;5002855;28;19923;-79
2021/09/09 09:21:09;;;;;;;;;;;;;;;-142.75;32.74;73878.31;4988095;28;19975;-79
2021/09/09 09:23:35;;;;;;;;;;;;;;;-142.75;32.15;73844.88;4988590;28;19901;-79
2021/09/09 09:26:03;;;;;;;;;;;;;;;-142.75;32.57;73850.78;5004662;28;20428;-79
2021/09/09 09:28:45;;;;;;;;;;;;;;;-142.75;32.22;73795.69;4987074;28;19924;-78
2021/09/09 09:31:18;;;;;;;;;;;;;;;-142.75;30.92;73713.09;5004954;28;19995;-78
2021/09/09 09:33:50;;;;;;;;;;;;;;;-142.75;31.33;73695.38;4985037;28;19968;-78
2021/09/09 09:36:15;;;;;;;;;;;;;;;-142.75;31.57;73764.22;5004180;28;19959;-78
2021/09/09 09:38:40;;;;;;;;;;;;;;;-142.75;32.11;73797.66;4987979;28;19917;-79
2021/09/09 09:41:06;;;;;;;;;;;;;;;-142.75;31.46;73724.88;5003359;28;19924;-79
2021/09/09 09:43:31;;;;;;;;;;;;;;;-142.75;31.61;73717.03;5004131;28;19913;-77
2021/09/09 09:45:58;;;;;;;;;;;;;;;-142.75;31.13;73673.75;5003134;28;19964;-78
2021/09/09 09:48:28;;;;;;;;;;;;;;;-142.75;30.84;73656.03;5004353;28;19928;-79
2021/09/09 09:50:54;;;;;;;;;;;;;;;-142.75;30.62;73610.81;5004022;28;19926;-77
2021/09/09 09:53:19;;;;;;;;;;;;;;;-142.75;30.85;73677.69;4985051;28;20008;-79
2021/09/09 09:55:45;;;;;;;;;;;;;;;-142.75;31.77;73862.59;4981642;28;19958;-78
2021/09/09 09:58:10;;;;;;;;;;;;;;;-142.75;31.77;73842.91;4998378;28;19913;-78
2021/09/09 10:00:36;;;;;;;;;;;;;;;-142.75;32.90;73901.94;4997851;28;19928;-80
2021/09/09 10:03:01;;;;;;;;;;;;;;;-142.75;32.75;73787.84;4998128;28;20363;-78
2021/09/09 10:05:27;;;;;;;;;;;;;;;-142.75;32.46;73781.94;4999353;28;19922;-79
2021/09/09 10:07:53;;;;;;;;;;;;;;;-142.75;33.50;73929.47;4981767;28;20373;-79
2021/09/09 10:10:18;;;;;;;;;;;;;;;-142.75;32.40;73715.06;5000954;28;19920;-78
2021/09/09 10:12:44;;;;;;;;;;;;;;;-142.75;30.90;73648.16;5002414;28;19922;-79
2021/09/09 10:15:12;;;;;;;;;;;;;;;-142.75;30.99;73614.72;5003367;28;19913;-79
2021/09/09 10:17:37;;;;;;;;;;;;;;;-142.75;30.67;73577.34;4986630;28;20008;-79
2021/09/09 10:20:40;;;;;;;;;;;;;;;-142.75;30.46;73555.72;4999205;28;19926;-79
2021/09/09 10:23:09;;;;;;;;;;;;;;;-142.75;29.98;73488.84;5030886;28;19939;-78
2021/09/09 10:25:40;;;;;;;;;;;;;;;-142.75;30.11;73524.25;5010134;28;19945;-78
2021/09/09 10:28:26;;;;;;;;;;;;;;;-142.75;30.00;73528.19;4989742;28;19918;-79
2021/09/09 10:31:08;;;;;;;;;;;;;;;-142.75;30.37;73516.38;4990773;28;19914;-79
2021/09/09 10:33:34;;;;;;;;;;;;;;;-142.75;31.22;73614.72;4987650;28;20663;-78
2021/09/09 10:35:59;;;;;;;;;;;;;;;-142.75;30.45;73518.34;4987842;28;19914;-79
2021/09/09 10:38:27;;;;;;;;;;;;;;;-142.75;30.40;73500.66;4985987;28;19939;-78
2021/09/09 10:40:52;;;;;;;;;;;;;;;-142.75;30.01;73510.47;4988323;28;19940;-78
2021/09/09 10:43:26;;;;;;;;;;;;;;;-142.75;29.85;73469.19;5006215;28;19977;-79
2021/09/09 10:46:01;;;;;;;;;;;;;;;-142.75;29.74;73467.22;5001679;28;19918;-80
2021/09/09 10:48:28;;;;;;;;;;;;;;;-142.75;30.96;73608.84;5001922;28;20348;-79
2021/09/09 10:51:02;;;;;;;;;;;;;;;-142.75;30.38;73520.31;5000013;28;19936;-79
2021/09/09 10:53:38;;;;;;;;;;;;;;;-142.75;30.94;73573.44;4986889;28;19917;-79
2021/09/09 10:56:20;;;;;;;;;;;;;;;-142.75;30.43;73524.25;4987041;28;19945;-78
2021/09/09 10:58:46;;;;;;;;;;;;;;;-142.75;30.02;73486.88;4988413;28;19963;-78
2021/09/09 11:01:12;;;;;;;;;;;;;;;-142.75;30.90;73636.38;4981768;28;19922;-77
2021/09/09 11:03:37;;;;;;;;;;;;;;;-142.75;31.17;73630.47;5000270;28;19921;-77
2021/09/09 11:06:25;;;;;;;;;;;;;;;-142.75;31.05;73563.59;4999407;28;19959;-77
2021/09/09 11:08:53;;;;;;;;;;;;;;;-142.75;31.77;73669.81;4982989;28;20001;-76
2021/09/09 11:11:21;;;;;;;;;;;;;;;-142.75;30.90;73585.22;4982241;28;19921;-77
2021/09/09 11:13:54;;;;;;;;;;;;;;;-142.75;31.04;73581.28;4984037;28;19983;-76
2021/09/09 11:16:20;;;;;;;;;;;;;;;-142.75;31.61;73646.22;4982481;28;20398;-76
2021/09/09 11:18:45;;;;;;;;;;;;;;;-142.75;33.59;73955.03;4981074;28;19921;-78
2021/09/09 11:21:10;;;;;;;;;;;;;;;-142.75;32.88;73772.09;4983260;28;19914;-79
2021/09/09 11:23:36;;;;;;;;;;;;;;;-142.75;31.75;73685.53;4984660;28;19918;-79
2021/09/09 11:26:12;;;;;;;;;;;;;;;-142.75;31.77;73608.84;4981488;28;19917;-78
2021/09/09 11:28:37;;;;;;;;;;;;;;;-142.75;31.56;73602.94;5001668;28;19944;-79
2021/09/09 11:31:04;;;;;;;;;;;;;;;-142.75;32.91;73787.84;4999029;28;19914;-79
2021/09/09 11:33:29;;;;;;;;;;;;;;;-142.75;32.60;73799.63;4985797;28;19926;-79
2021/09/09 11:36:01;;;;;;;;;;;;;;;-142.75;33.68;73888.16;4988118;28;19949;-78
2021/09/09 11:38:30;;;;;;;;;;;;;;;-142.75;34.29;73957.00;5003895;28;19921;-78
2021/09/09 11:41:06;;;;;;;;;;;;;;;-142.75;35.02;74045.53;4986803;28;19913;-78
2021/09/09 11:43:31;;;;;;;;;;;;;;;-142.75;37.54;74204.88;5003124;28;19914;-79
2021/09/09 11:45:56;;;;;;;;;;;;;;;-142.75;38.45;74200.94;4984913;28;19921;-79
2021/09/09 11:48:22;;;;;;;;;;;;;;;-142.75;38.28;74218.66;4982009;28;19943;-79
2021/09/09 11:50:48;;;;;;;;;;;;;;;-142.75;39.17;74305.22;4980063;28;19935;-78
2021/09/09 11:53:20;;;;;;;;;;;;;;;-142.75;40.96;74440.97;4996069;28;19925;-78
2021/09/09 11:55:45;;;;;;;;;;;;;;;-142.75;41.19;74370.16;4996118;28;19928;-78
2021/09/09 11:58:29;;;;;;;;;;;;;;;-142.75;39.26;74322.94;4977335;28;20005;-78
2021/09/09 12:00:54;;;;;;;;;;;;;;;-142.75;40.17;74315.06;4994531;28;19932;-79
2021/09/09 12:03:19;;;;;;;;;;;;;;;-142.75;39.80;74287.50;4995136;28;19914;-77
2021/09/09 12:05:44;;;;;;;;;;;;;;;-142.75;40.10;74279.66;4977851;28;19969;-79
2021/09/09 12:08:10;;;;;;;;;;;;;;;-142.75;39.87;74289.47;4997038;28;19943;-78
2021/09/09 12:10:35;;;;;;;;;;;;;;;-142.75;39.87;74305.22;4994816;28;19965;-79
2021/09/09 12:13:00;;;;;;;;;;;;;;;-142.75;40.26;74322.94;4994747;28;19917;-80
2021/09/09 12:15:26;;;;;;;;;;;;;;;-142.75;40.25;74348.50;4993625;28;19917;-80
2021/09/09 12:17:51;;;;;;;;;;;;;;;-142.75;41.15;74360.31;4976912;28;20435;-77
2021/09/09 12:20:24;;;;;;;;;;;;;;;-142.75;42.34;74442.94;4975725;28;19947;-80
2021/09/09 12:22:51;;;;;;;;;;;;;;;-142.75;42.97;74442.94;4977702;28;19914;-78